Altoona, FL

6:03 PM EST on December 18, 2014 (GMT -0500)
RAWS CENTRAL FL US | Change Station
CLOSE
Current Station
Personal Weather Station
Location: Astor, FL
Elevation: 74 ft
Nearby Weather Stations

Elev 74 ft 29.11 °N, 81.63 °W | Updated 59 minutes ago

Partly Cloudy
Partly Cloudy
61 °F
Feels Like 61 °F
N
1
Wind Variable Wind from NE
Gusts 6.0 mph

Today
High -- | Low -- °F
--% Chance of Precip.
Yesterday
High -- | Low -- °F
Precip. -- in
7:14 AM 5:32 PM
Waning Crescent, 12% visible
Pressure 30.02 in
Visibility 6.0 miles
Clouds
Dew Point 50 °F
Humidity 66%
Rainfall 0.00 in
Snow Depth Not available.
UV Not available.
Pollen 4.20 out of 12
Air Quality Not available.
Flu Activity Not available.
METAR KVVG 182235Z AUTO 29003KT 6SM HZ 17/08 A3002 RMK A01

More Conditions Fewer Conditions

Pressure 30.02 in
Visibility 6.0 miles
Clouds
Dew Point 50 °F
Humidity 66%
Rainfall 0.00 in
Snow Depth Not available.
UV Not available.
Pollen 4.20 out of 12
Air Quality Not available.
Flu Activity Not available.
METAR KVVG 182235Z AUTO 29003KT 6SM HZ 17/08 A3002 RMK A01

More Conditions Fewer Conditions

10-Day Weather Forecast

Almanac

Astronomy

Dec. 18, 2014 Rise Set
Actual Time
Civil Twilight
Nautical Twilight
Astronomical Twilight
Moon
Length of Visible Light
Length of Day
Tomorrow will be .
, % of the Moon is Illuminated

Today's Extremes

State Highs State Lows

Community

WunderPhotos

Upload Photos

1,779,014 photos uploaded!

WunderBlogs® & News

Nearby

Air Quality

  Air Quality AQ Index Pollutant
Not available.

Snow Depth

Station Depth Elevation

Earthquake Activity

City Distance Mag. Time & Date
Minimum magnitude displayed is 2.5.

Coastal Water Temperatures

Place Temperature

Nearby Weather Stations